createdAt,value
2023-02-22T00:00:32.675Z,98.00
2023-02-22T00:01:35.084Z,97.76
2023-02-22T00:02:37.059Z,97.77
2023-02-22T00:03:39.005Z,97.79
2023-02-22T00:04:41.282Z,97.44
2023-02-22T00:05:46.069Z,97.44
2023-02-22T00:06:48.429Z,96.41
2023-02-22T00:07:50.409Z,96.06
2023-02-22T00:08:52.598Z,95.83
2023-02-22T00:09:56.252Z,95.70
2023-02-22T00:11:00.453Z,96.27
2023-02-22T00:12:02.608Z,96.53
2023-02-22T00:13:07.060Z,95.99
2023-02-22T00:14:09.025Z,95.72
2023-02-22T00:15:11.214Z,95.41
2023-02-22T00:16:18.215Z,95.32
2023-02-22T00:17:20.275Z,95.25
2023-02-22T00:18:22.429Z,94.46
2023-02-22T00:19:24.731Z,92.99
2023-02-22T00:20:27.826Z,92.24
2023-02-22T00:21:29.999Z,92.03
2023-02-22T00:22:32.466Z,91.55
2023-02-22T00:23:34.357Z,91.31
2023-02-22T00:24:36.250Z,91.51
2023-02-22T00:25:39.208Z,91.88
2023-02-22T00:26:41.339Z,91.38
2023-02-22T00:27:45.039Z,90.83
2023-02-22T00:28:50.161Z,90.68
2023-02-22T00:29:52.129Z,90.83
2023-02-22T00:30:54.277Z,91.07
2023-02-22T00:31:56.316Z,90.68
2023-02-22T00:32:59.501Z,90.46
2023-02-22T00:34:01.392Z,90.63
2023-02-22T00:35:03.739Z,90.81
2023-02-22T00:36:07.367Z,91.08
2023-02-22T00:37:10.891Z,91.62
2023-02-22T00:38:14.851Z,91.90
2023-02-22T00:39:17.406Z,91.85
2023-02-22T00:40:23.484Z,91.12
2023-02-22T00:41:25.613Z,91.27
2023-02-22T00:42:27.586Z,91.44
2023-02-22T00:43:30.234Z,90.68
2023-02-22T00:44:32.114Z,90.21
2023-02-22T00:45:35.853Z,90.33
2023-02-22T00:46:38.402Z,90.43
2023-02-22T00:47:40.381Z,89.69
2023-02-22T00:48:42.248Z,89.04
2023-02-22T00:49:44.121Z,88.98
2023-02-22T00:50:46.672Z,89.33
2023-02-22T00:51:48.660Z,89.49
2023-02-22T00:52:51.800Z,88.79
2023-02-22T00:53:56.097Z,88.93
2023-02-22T00:54:58.142Z,89.03
2023-02-22T00:56:00.492Z,89.06
2023-02-22T00:57:03.230Z,89.09
2023-02-22T00:58:06.988Z,89.02
2023-02-22T00:59:09.013Z,89.33
2023-02-22T01:00:18.579Z,89.38
2023-02-22T01:01:20.833Z,89.73
2023-02-22T01:02:23.028Z,89.29
2023-02-22T01:03:24.950Z,88.57
2023-02-22T01:04:27.412Z,88.88
2023-02-22T01:05:30.820Z,88.99
2023-02-22T01:06:33.530Z,89.18
2023-02-22T01:07:36.111Z,89.00
2023-02-22T01:08:38.014Z,88.43
2023-02-22T01:09:40.064Z,87.95
2023-02-22T01:10:43.502Z,87.57
2023-02-22T01:11:45.507Z,87.89
2023-02-22T01:12:48.732Z,88.06
2023-02-22T01:13:50.909Z,88.40
2023-02-22T01:14:53.781Z,88.58
2023-02-22T01:15:56.056Z,88.34
2023-02-22T01:16:58.350Z,87.95
2023-02-22T01:18:00.239Z,87.67
2023-02-22T01:19:02.853Z,87.86
2023-02-22T01:20:07.571Z,87.95
2023-02-22T01:21:09.767Z,87.68
2023-02-22T01:22:11.468Z,86.97
2023-02-22T01:23:13.899Z,86.09
2023-02-22T01:24:18.455Z,85.37
2023-02-22T01:25:27.019Z,85.30
2023-02-22T01:26:28.856Z,85.73
2023-02-22T01:27:30.630Z,85.04
2023-02-22T01:28:33.644Z,85.17
2023-02-22T01:29:35.406Z,85.23
2023-02-22T01:30:37.295Z,84.88
2023-02-22T01:31:39.187Z,85.12
2023-02-22T01:32:42.052Z,85.21
2023-02-22T01:33:43.936Z,85.15
2023-02-22T01:34:46.172Z,85.25
2023-02-22T01:35:49.171Z,85.30
2023-02-22T01:36:50.923Z,84.92
2023-02-22T01:37:52.848Z,84.66
2023-02-22T01:38:54.584Z,84.55
2023-02-22T01:39:56.290Z,84.95
2023-02-22T01:40:58.112Z,84.39
2023-02-22T01:42:00.183Z,84.21
2023-02-22T01:43:17.988Z,84.15
2023-02-22T01:44:32.509Z,84.75
2023-02-22T01:45:46.927Z,84.84
2023-02-22T01:46:49.000Z,84.75
2023-02-22T01:47:50.899Z,84.52
2023-02-22T01:48:59.592Z,84.93
2023-02-22T01:50:01.902Z,84.38
2023-02-22T01:52:37.166Z,84.60
2023-02-22T01:53:42.666Z,84.37
2023-02-22T01:54:51.033Z,84.21
2023-02-22T01:55:54.043Z,83.58
2023-02-22T01:57:08.581Z,83.02
2023-02-22T01:58:13.876Z,82.91
2023-02-22T01:59:17.764Z,82.48
2023-02-22T02:00:20.457Z,82.01
2023-02-22T02:01:24.577Z,81.90
2023-02-22T02:02:27.496Z,81.81
2023-02-22T02:03:33.228Z,81.67
2023-02-22T02:04:36.882Z,81.69
2023-02-22T02:05:40.017Z,81.83
2023-02-22T02:06:43.294Z,81.63
2023-02-22T02:07:45.529Z,81.87
2023-02-22T02:09:02.985Z,81.81
2023-02-22T02:10:11.316Z,81.86
2023-02-22T02:11:15.740Z,82.43
2023-02-22T02:12:20.282Z,82.22
2023-02-22T02:13:23.468Z,82.32
2023-02-22T02:14:26.469Z,82.04
2023-02-22T02:15:33.112Z,82.50
2023-02-22T02:16:41.938Z,81.82
2023-02-22T02:17:44.514Z,81.51
2023-02-22T02:18:46.873Z,81.11
2023-02-22T02:20:04.514Z,80.97
2023-02-22T02:21:13.571Z,80.73
2023-02-22T02:24:04.811Z,80.94
2023-02-22T02:25:15.910Z,81.08
2023-02-22T02:26:40.247Z,81.06
2023-02-22T02:28:07.080Z,81.53
2023-02-22T02:29:35.317Z,81.47
2023-02-22T02:31:02.523Z,81.29
2023-02-22T02:32:14.214Z,81.22
2023-02-22T02:33:23.838Z,80.45
2023-02-22T02:34:51.145Z,80.26
2023-02-22T02:37:47.325Z,81.41
2023-02-22T02:38:59.322Z,80.99
2023-02-22T02:40:17.046Z,80.69
2023-02-22T02:41:28.994Z,80.48
2023-02-22T02:42:37.495Z,80.48
2023-02-22T02:44:56.967Z,80.69
2023-02-22T02:46:20.782Z,80.95
2023-02-22T02:47:35.483Z,80.24
2023-02-22T02:48:41.148Z,79.81
2023-02-22T02:49:53.823Z,79.89
2023-02-22T02:50:59.431Z,79.09
2023-02-22T02:52:03.662Z,79.14
2023-02-22T02:53:08.093Z,78.66
2023-02-22T02:54:12.468Z,78.44
2023-02-22T02:55:17.221Z,78.73
2023-02-22T02:56:19.548Z,78.04
2023-02-22T02:57:22.684Z,77.82
2023-02-22T02:58:25.318Z,78.23
2023-02-22T02:59:30.625Z,78.10
2023-02-22T03:00:36.636Z,78.29
2023-02-22T03:01:54.159Z,78.05
2023-02-22T03:03:12.167Z,78.22
2023-02-22T03:04:30.189Z,77.47
2023-02-22T03:05:42.863Z,77.94
2023-02-22T03:06:48.770Z,78.10
2023-02-22T03:08:06.504Z,78.01
2023-02-22T03:09:14.959Z,77.80
2023-02-22T03:10:23.942Z,78.32
2023-02-22T03:11:32.665Z,78.45
2023-02-22T03:12:47.031Z,78.51
2023-02-22T03:14:04.294Z,78.33
2023-02-22T03:15:16.039Z,78.44
2023-02-22T03:16:25.425Z,78.58
2023-02-22T03:17:47.256Z,78.29
2023-02-22T03:18:56.006Z,77.99
2023-02-22T03:20:01.815Z,78.20
2023-02-22T03:21:07.514Z,78.50
2023-02-22T03:23:38.983Z,79.22
2023-02-22T03:25:06.651Z,80.02
2023-02-22T03:26:12.688Z,79.45
2023-02-22T03:27:18.417Z,79.46
2023-02-22T03:28:24.092Z,79.58
2023-02-22T03:29:29.870Z,79.33
2023-02-22T03:30:38.865Z,79.27
2023-02-22T03:31:44.754Z,79.60
2023-02-22T03:32:50.688Z,79.55
2023-02-22T03:33:56.461Z,79.40
2023-02-22T03:35:08.161Z,79.08
2023-02-22T03:36:23.423Z,78.78
2023-02-22T03:37:29.128Z,79.25
2023-02-22T03:38:34.099Z,79.70
2023-02-22T03:39:38.407Z,79.38
2023-02-22T03:40:43.855Z,79.58
2023-02-22T03:41:49.102Z,79.35
2023-02-22T03:42:54.876Z,79.31
2023-02-22T03:44:03.366Z,79.40
2023-02-22T03:45:08.058Z,79.52
2023-02-22T03:46:13.455Z,79.15
2023-02-22T03:47:24.976Z,79.63
2023-02-22T03:48:28.598Z,79.20
2023-02-22T03:49:49.382Z,79.05
2023-02-22T03:50:52.813Z,78.52
2023-02-22T03:51:55.668Z,79.41
2023-02-22T03:52:59.173Z,78.77
2023-02-22T03:54:03.209Z,78.89
2023-02-22T03:55:06.001Z,79.17
2023-02-22T03:56:12.921Z,78.61
2023-02-22T03:57:18.712Z,78.65
2023-02-22T03:58:24.085Z,78.72
2023-02-22T03:59:27.400Z,78.31
2023-02-22T04:00:34.862Z,78.54
2023-02-22T04:01:37.248Z,79.34
2023-02-22T04:02:40.241Z,79.35
2023-02-22T04:03:42.357Z,79.94
2023-02-22T04:04:46.723Z,79.51
2023-02-22T04:05:49.448Z,79.32
2023-02-22T04:06:52.074Z,79.18
2023-02-22T04:07:56.594Z,79.82
2023-02-22T04:09:00.505Z,79.57
2023-02-22T04:10:03.730Z,79.62
2023-02-22T04:11:05.600Z,79.44
2023-02-22T04:12:08.328Z,79.53
2023-02-22T04:13:11.217Z,79.28
2023-02-22T04:14:13.494Z,79.47
2023-02-22T04:15:18.798Z,80.44
2023-02-22T04:16:21.278Z,79.93
2023-02-22T04:17:23.469Z,80.09
2023-02-22T04:18:25.355Z,80.76
2023-02-22T04:19:27.449Z,81.02
2023-02-22T04:20:29.742Z,80.47
2023-02-22T04:21:32.003Z,79.89
2023-02-22T04:22:33.905Z,79.92
2023-02-22T04:23:36.560Z,80.11
2023-02-22T04:24:38.585Z,79.97
2023-02-22T04:25:40.501Z,79.71
2023-02-22T04:26:42.920Z,79.23
2023-02-22T04:27:45.092Z,78.59
2023-02-22T04:28:47.112Z,78.92
2023-02-22T04:29:48.996Z,79.42
2023-02-22T04:30:51.269Z,78.56
2023-02-22T04:31:53.303Z,78.16
2023-02-22T04:32:56.520Z,78.86
2023-02-22T04:33:59.598Z,78.96
2023-02-22T04:35:03.808Z,79.47
2023-02-22T04:36:07.315Z,78.46
2023-02-22T04:37:09.212Z,77.87
2023-02-22T04:38:11.087Z,77.97
2023-02-22T04:39:12.990Z,78.23
2023-02-22T04:40:17.610Z,78.35
2023-02-22T04:41:20.073Z,78.26
2023-02-22T04:42:22.033Z,77.98
2023-02-22T04:43:24.301Z,77.54
2023-02-22T04:44:26.665Z,77.95
2023-02-22T04:45:28.687Z,78.22
2023-02-22T04:46:31.024Z,77.44
2023-02-22T04:47:34.983Z,76.43
2023-02-22T04:48:37.183Z,76.00
2023-02-22T04:49:39.211Z,75.27
2023-02-22T04:50:42.681Z,75.29
2023-02-22T04:51:44.808Z,76.49
2023-02-22T04:52:47.710Z,76.49
2023-02-22T04:53:49.872Z,76.57
2023-02-22T04:54:52.813Z,77.49
2023-02-22T04:55:55.569Z,76.73
2023-02-22T04:56:57.999Z,77.08
2023-02-22T04:58:00.544Z,76.66
2023-02-22T04:59:02.759Z,76.82
2023-02-22T05:00:06.542Z,77.08
2023-02-22T05:01:08.962Z,77.43
2023-02-22T05:02:12.439Z,75.67
2023-02-22T05:03:14.646Z,75.41
2023-02-22T05:04:16.786Z,75.57
2023-02-22T05:05:21.164Z,75.57
2023-02-22T05:06:23.515Z,76.25
2023-02-22T05:07:25.608Z,76.50
2023-02-22T05:08:27.555Z,76.46
2023-02-22T05:09:29.566Z,76.53
2023-02-22T05:10:31.788Z,75.60
2023-02-22T05:11:33.755Z,75.60
2023-02-22T05:12:36.675Z,75.78
2023-02-22T05:13:38.697Z,75.51
2023-02-22T05:14:40.704Z,75.34
2023-02-22T05:15:42.619Z,74.86
2023-02-22T05:16:45.106Z,75.12
2023-02-22T05:17:47.494Z,75.10
2023-02-22T05:18:49.483Z,74.96
2023-02-22T05:19:51.618Z,75.38
2023-02-22T05:20:53.818Z,75.43
2023-02-22T05:21:55.923Z,75.42
2023-02-22T05:22:59.921Z,75.92
2023-02-22T05:24:01.852Z,76.01
2023-02-22T05:25:05.035Z,75.75
2023-02-22T05:26:09.988Z,75.76
2023-02-22T05:27:11.981Z,75.64
2023-02-22T05:28:16.962Z,76.13
2023-02-22T05:29:19.871Z,76.21
2023-02-22T05:30:25.446Z,75.13
2023-02-22T05:31:27.588Z,74.66
2023-02-22T05:32:29.711Z,74.56
2023-02-22T05:33:31.968Z,74.14
2023-02-22T05:34:33.845Z,74.08
2023-02-22T05:35:36.286Z,74.56
2023-02-22T05:36:41.278Z,74.21
2023-02-22T05:37:43.592Z,74.19
2023-02-22T05:38:45.585Z,74.27
2023-02-22T05:39:47.466Z,73.87
2023-02-22T05:40:50.500Z,74.31
2023-02-22T05:41:52.373Z,74.42
2023-02-22T05:42:56.368Z,74.54
2023-02-22T05:43:59.360Z,75.03
2023-02-22T05:45:01.759Z,74.63
2023-02-22T05:46:05.483Z,74.19
2023-02-22T05:47:07.384Z,75.25
2023-02-22T05:48:09.253Z,74.35
2023-02-22T05:49:11.126Z,74.27
2023-02-22T05:50:16.247Z,74.47
2023-02-22T05:51:18.475Z,74.05
2023-02-22T05:52:21.016Z,74.40
2023-02-22T05:53:23.714Z,74.23
2023-02-22T05:54:25.726Z,74.16
2023-02-22T05:55:27.689Z,73.30
2023-02-22T05:56:32.179Z,73.76
2023-02-22T05:57:34.651Z,73.96
2023-02-22T05:58:36.559Z,73.90
2023-02-22T05:59:38.480Z,74.75
2023-02-22T06:00:40.771Z,74.67
2023-02-22T06:01:42.880Z,75.17
2023-02-22T06:02:45.882Z,74.86
2023-02-22T06:03:51.134Z,74.96
2023-02-22T06:04:53.056Z,74.91
2023-02-22T06:05:54.924Z,76.15
2023-02-22T06:06:57.028Z,75.78
2023-02-22T06:08:02.479Z,76.37
2023-02-22T06:09:04.431Z,76.25
2023-02-22T06:10:07.078Z,76.29
2023-02-22T06:11:09.222Z,76.75
2023-02-22T06:12:11.941Z,77.37
2023-02-22T06:13:13.853Z,77.07
2023-02-22T06:14:15.830Z,76.95
2023-02-22T06:15:20.329Z,76.95
2023-02-22T06:16:23.043Z,76.85
2023-02-22T06:17:25.100Z,76.13
2023-02-22T06:18:27.211Z,76.21
2023-02-22T06:19:29.190Z,76.38
2023-02-22T06:20:31.272Z,77.02
2023-02-22T06:21:33.258Z,78.00
2023-02-22T06:22:35.341Z,77.02
2023-02-22T06:23:37.460Z,77.53
2023-02-22T06:24:39.392Z,77.80
2023-02-22T06:25:41.464Z,78.02
2023-02-22T06:26:43.544Z,78.32
2023-02-22T06:27:45.716Z,78.49
2023-02-22T06:28:48.920Z,78.96
2023-02-22T06:29:50.823Z,78.42
2023-02-22T06:30:53.312Z,78.00
2023-02-22T06:31:56.306Z,77.52
2023-02-22T06:32:58.555Z,77.53
2023-02-22T06:34:01.513Z,78.02
2023-02-22T06:35:04.091Z,77.27
2023-02-22T06:36:07.877Z,77.39
2023-02-22T06:37:09.927Z,77.90
2023-02-22T06:38:12.020Z,77.70
2023-02-22T06:39:16.068Z,76.98
2023-02-22T06:40:19.748Z,75.99
2023-02-22T06:41:21.828Z,75.74
2023-02-22T06:42:23.765Z,76.31
2023-02-22T06:43:26.889Z,76.46
2023-02-22T06:44:28.785Z,77.14
2023-02-22T06:45:30.889Z,75.98
2023-02-22T06:46:33.591Z,75.49
2023-02-22T06:47:41.324Z,75.46
2023-02-22T06:48:43.328Z,75.44
2023-02-22T06:49:47.322Z,75.59
2023-02-22T06:50:49.485Z,75.26
2023-02-22T06:51:51.781Z,75.26
2023-02-22T06:52:54.406Z,75.11
2023-02-22T06:53:56.495Z,75.86
2023-02-22T06:54:58.428Z,75.94
2023-02-22T06:56:00.815Z,75.31
2023-02-22T06:57:03.011Z,74.90
2023-02-22T06:58:07.212Z,74.95
2023-02-22T06:59:09.283Z,75.44
2023-02-22T07:00:14.416Z,74.96
2023-02-22T07:01:16.869Z,74.04
2023-02-22T07:02:19.194Z,73.51
2023-02-22T07:03:21.341Z,73.32
2023-02-22T07:04:23.287Z,72.62
2023-02-22T07:05:26.794Z,72.69
2023-02-22T07:06:29.511Z,73.47
2023-02-22T07:07:32.478Z,73.70
2023-02-22T07:08:34.380Z,73.09
2023-02-22T07:09:36.421Z,74.26
2023-02-22T07:10:40.689Z,74.06
2023-02-22T07:11:43.131Z,73.49
2023-02-22T07:12:45.413Z,72.68
2023-02-22T07:13:47.538Z,72.19
2023-02-22T07:14:49.534Z,71.25
2023-02-22T07:15:51.433Z,71.14
2023-02-22T07:16:53.610Z,72.19
2023-02-22T07:17:56.332Z,72.17
2023-02-22T07:18:58.245Z,70.94
2023-02-22T07:20:00.175Z,71.44
2023-02-22T07:21:02.320Z,71.46
2023-02-22T07:22:04.299Z,71.36
2023-02-22T07:23:06.576Z,71.46
2023-02-22T07:24:08.588Z,72.95
2023-02-22T07:25:10.857Z,71.99
2023-02-22T07:26:13.017Z,71.67
2023-02-22T07:27:15.101Z,71.88
2023-02-22T07:28:17.879Z,71.85
2023-02-22T07:29:19.774Z,71.65
2023-02-22T07:31:39.411Z,71.22
2023-02-22T07:32:45.830Z,70.84
2023-02-22T07:33:51.599Z,71.04
2023-02-22T07:34:53.513Z,72.21
2023-02-22T07:35:55.802Z,71.15
2023-02-22T07:36:58.000Z,72.57
2023-02-22T07:37:59.993Z,72.32
2023-02-22T07:39:01.863Z,72.25
2023-02-22T07:40:06.966Z,72.06
2023-02-22T07:41:09.003Z,72.85
2023-02-22T07:42:10.931Z,72.80
2023-02-22T07:43:19.814Z,72.00
2023-02-22T07:44:21.996Z,70.96
2023-02-22T07:45:26.591Z,70.48
2023-02-22T07:46:28.873Z,71.02
2023-02-22T07:47:30.762Z,70.89
2023-02-22T07:48:32.638Z,70.98
2023-02-22T07:49:34.539Z,70.86
2023-02-22T07:50:36.553Z,71.08
2023-02-22T07:51:38.682Z,70.87
2023-02-22T07:52:50.132Z,70.21
2023-02-22T07:53:52.096Z,70.79
2023-02-22T07:54:53.963Z,70.62
2023-02-22T07:56:00.890Z,71.71
2023-02-22T07:57:03.055Z,71.17
2023-02-22T07:58:07.946Z,70.67
2023-02-22T07:59:09.970Z,70.51
2023-02-22T08:00:15.832Z,70.14
2023-02-22T08:01:18.083Z,70.71
2023-02-22T08:02:21.130Z,71.38
2023-02-22T08:03:26.117Z,71.03
2023-02-22T08:04:28.073Z,70.51
2023-02-22T08:05:31.358Z,72.29
2023-02-22T08:06:34.134Z,71.28
2023-02-22T08:07:37.340Z,71.07
2023-02-22T08:08:39.331Z,70.93
2023-02-22T08:09:41.304Z,71.08
2023-02-22T08:10:43.693Z,69.84
2023-02-22T08:11:45.590Z,71.29
2023-02-22T08:12:48.129Z,70.88
2023-02-22T08:13:51.870Z,70.72
2023-02-22T08:14:53.801Z,70.47
2023-02-22T08:15:57.523Z,70.47
2023-02-22T08:17:00.542Z,71.32
2023-02-22T08:18:11.985Z,72.09
2023-02-22T08:19:14.891Z,72.43
2023-02-22T08:20:18.035Z,71.29
2023-02-22T08:21:20.169Z,71.32
2023-02-22T08:22:22.857Z,70.99
2023-02-22T08:23:25.542Z,71.44
2023-02-22T08:24:27.620Z,71.72
2023-02-22T08:25:30.182Z,71.12
2023-02-22T08:26:32.596Z,70.77
2023-02-22T08:27:34.559Z,70.77
2023-02-22T08:28:36.630Z,71.90
2023-02-22T08:29:39.505Z,72.11
2023-02-22T08:30:42.939Z,71.56
2023-02-22T08:31:48.898Z,71.56
2023-02-22T08:32:51.478Z,71.85
2023-02-22T08:33:53.565Z,71.30
2023-02-22T08:34:55.551Z,71.12
2023-02-22T08:35:57.451Z,70.43
2023-02-22T08:36:59.519Z,70.31
2023-02-22T08:38:05.391Z,71.01
2023-02-22T08:39:07.520Z,71.39
2023-02-22T08:40:13.351Z,72.59
2023-02-22T08:41:16.229Z,72.07
2023-02-22T08:42:18.504Z,71.70
2023-02-22T08:43:23.570Z,70.85
2023-02-22T08:44:25.627Z,70.74
2023-02-22T08:45:28.150Z,70.72
2023-02-22T08:46:30.401Z,70.08
2023-02-22T08:47:32.382Z,69.61
2023-02-22T08:48:34.321Z,69.35
2023-02-22T08:49:36.256Z,69.50
2023-02-22T08:50:38.254Z,71.22
2023-02-22T08:51:40.438Z,72.15
2023-02-22T08:52:42.323Z,72.38
2023-02-22T08:53:44.416Z,72.25
2023-02-22T08:54:47.150Z,72.73
2023-02-22T08:55:49.289Z,72.05
2023-02-22T08:56:51.738Z,71.45
2023-02-22T08:57:53.633Z,70.76
2023-02-22T08:58:56.316Z,69.91
2023-02-22T08:59:58.314Z,70.48
2023-02-22T09:01:00.563Z,69.99
2023-02-22T09:02:02.576Z,69.44
2023-02-22T09:03:07.688Z,69.39
2023-02-22T09:04:09.841Z,69.68
2023-02-22T09:05:11.957Z,70.05
2023-02-22T09:06:14.789Z,70.08
2023-02-22T09:07:17.549Z,70.12
2023-02-22T09:08:19.897Z,70.40
2023-02-22T09:09:21.974Z,69.76
2023-02-22T09:10:28.043Z,69.78
2023-02-22T09:11:30.333Z,70.32
2023-02-22T09:12:32.429Z,70.07
2023-02-22T09:13:34.712Z,70.50
2023-02-22T09:14:37.323Z,70.35
2023-02-22T09:15:39.229Z,70.77
2023-02-22T09:16:44.479Z,70.45
2023-02-22T09:17:48.145Z,70.16
2023-02-22T09:18:50.498Z,70.87
2023-02-22T09:19:52.393Z,70.94
2023-02-22T09:20:54.580Z,71.20
2023-02-22T09:21:57.978Z,70.49
2023-02-22T09:23:00.045Z,71.10
2023-02-22T09:24:04.380Z,70.62
2023-02-22T09:25:16.342Z,69.36
2023-02-22T09:26:13.971Z,68.94
2023-02-22T09:27:16.632Z,68.87
2023-02-22T09:28:18.993Z,68.70
2023-02-22T09:29:23.023Z,68.87
2023-02-22T09:30:28.541Z,69.03
2023-02-22T09:31:30.684Z,68.78
2023-02-22T09:32:32.978Z,68.23
2023-02-22T09:33:34.999Z,68.93
2023-02-22T09:34:37.001Z,68.32
2023-02-22T09:35:40.573Z,68.42
2023-02-22T09:36:43.516Z,68.19
2023-02-22T09:37:45.813Z,68.28
2023-02-22T09:38:47.833Z,67.87
2023-02-22T09:39:49.833Z,69.02
2023-02-22T09:40:55.962Z,68.80
2023-02-22T09:42:14.209Z,67.69
2023-02-22T09:43:29.202Z,67.31
2023-02-22T09:44:44.167Z,68.48
2023-02-22T09:45:52.728Z,68.01
2023-02-22T09:46:57.973Z,66.55
2023-02-22T09:48:19.213Z,66.51
2023-02-22T09:49:17.112Z,66.22
2023-02-22T09:50:29.479Z,65.57
2023-02-22T09:51:41.093Z,64.97
2023-02-22T09:53:04.835Z,64.76
2023-02-22T09:54:22.912Z,63.96
2023-02-22T09:55:34.696Z,63.86
2023-02-22T09:56:38.104Z,64.80
2023-02-22T09:57:43.391Z,65.35
2023-02-22T09:58:49.193Z,64.92
2023-02-22T09:59:57.972Z,65.22
2023-02-22T10:01:23.490Z,65.38
2023-02-22T10:02:38.162Z,66.41
2023-02-22T10:03:49.686Z,65.91
2023-02-22T10:04:58.717Z,66.09
2023-02-22T10:06:08.075Z,66.50
2023-02-22T10:08:36.822Z,66.01
2023-02-22T10:09:41.700Z,66.03
2023-02-22T10:10:47.998Z,66.86
2023-02-22T10:11:59.418Z,66.75
2023-02-22T10:13:05.159Z,66.04
2023-02-22T10:14:27.369Z,65.56
2023-02-22T10:15:48.094Z,66.20
2023-02-22T10:17:05.578Z,66.89
2023-02-22T10:18:26.479Z,66.15
2023-02-22T10:21:06.736Z,65.37
2023-02-22T10:22:27.025Z,65.28
2023-02-22T10:23:53.946Z,65.81
2023-02-22T10:25:11.858Z,65.41
2023-02-22T10:26:18.675Z,65.85
2023-02-22T10:27:33.962Z,66.49
2023-02-22T10:28:39.894Z,64.81
2023-02-22T10:29:45.588Z,64.98
2023-02-22T10:30:57.392Z,65.61
2023-02-22T10:32:03.306Z,65.52
2023-02-22T10:33:21.385Z,64.32
2023-02-22T10:34:26.550Z,63.92
2023-02-22T10:35:37.549Z,65.56
2023-02-22T10:36:43.100Z,65.48
2023-02-22T10:37:45.748Z,64.91
2023-02-22T10:39:00.669Z,65.84
2023-02-22T10:40:15.542Z,66.08
2023-02-22T10:41:30.408Z,64.66
2023-02-22T10:42:32.535Z,64.66
2023-02-22T10:43:43.193Z,64.63
2023-02-22T10:44:45.422Z,64.20
2023-02-22T10:45:47.562Z,64.56
2023-02-22T10:46:50.697Z,64.89
2023-02-22T10:47:56.493Z,64.81
2023-02-22T10:49:02.270Z,64.63
2023-02-22T10:50:06.741Z,64.13
2023-02-22T10:51:11.295Z,63.18
2023-02-22T10:52:19.724Z,63.15
2023-02-22T10:53:21.745Z,63.15
2023-02-22T10:54:33.774Z,62.31
2023-02-22T10:55:40.354Z,61.94
2023-02-22T10:56:50.132Z,60.69
2023-02-22T10:58:01.684Z,61.15
2023-02-22T10:59:03.986Z,60.42
2023-02-22T11:00:22.258Z,60.73
2023-02-22T11:01:34.026Z,60.69
2023-02-22T11:02:36.307Z,60.24
2023-02-22T11:03:38.513Z,60.41
2023-02-22T11:04:49.776Z,60.00
2023-02-22T11:05:52.023Z,60.71
2023-02-22T11:07:10.503Z,60.27
2023-02-22T11:08:22.352Z,60.06
2023-02-22T11:09:24.920Z,60.50
2023-02-22T11:10:31.365Z,60.22
2023-02-22T11:11:33.595Z,59.98
2023-02-22T11:12:41.526Z,59.62
2023-02-22T11:13:44.654Z,59.82
2023-02-22T11:14:47.391Z,59.93
2023-02-22T11:15:49.649Z,59.79
2023-02-22T11:16:56.747Z,60.28
2023-02-22T11:18:00.006Z,61.37
2023-02-22T11:19:21.840Z,60.67
2023-02-22T11:20:28.698Z,60.65
2023-02-22T11:21:31.673Z,60.27
2023-02-22T11:22:40.594Z,60.13
2023-02-22T11:23:45.070Z,60.94
2023-02-22T11:24:50.971Z,60.80
2023-02-22T11:26:05.536Z,61.62
2023-02-22T11:27:08.718Z,60.88
2023-02-22T11:28:17.167Z,61.05
2023-02-22T11:29:34.429Z,61.88
2023-02-22T11:30:37.798Z,61.17
2023-02-22T11:31:45.560Z,60.95
2023-02-22T11:32:57.027Z,60.70
2023-02-22T11:34:00.630Z,60.47
2023-02-22T11:35:29.227Z,60.53
2023-02-22T11:36:41.105Z,60.54
2023-02-22T11:37:43.242Z,60.82
2023-02-22T11:38:56.448Z,60.69
2023-02-22T11:40:20.379Z,60.41
2023-02-22T11:41:30.192Z,60.95
2023-02-22T11:42:32.540Z,61.98
2023-02-22T11:43:35.040Z,61.76
2023-02-22T11:44:37.195Z,61.14
2023-02-22T11:45:49.855Z,61.54
2023-02-22T11:46:46.670Z,61.19
2023-02-22T11:47:52.660Z,61.16
2023-02-22T11:49:07.290Z,61.01
2023-02-22T11:50:13.265Z,61.31
2023-02-22T11:51:54.190Z,62.55
2023-02-22T11:53:20.144Z,62.90
2023-02-22T11:54:38.117Z,63.46
2023-02-22T11:56:18.751Z,63.32
2023-02-22T11:57:42.240Z,62.98
2023-02-22T11:59:04.386Z,62.44
2023-02-22T12:00:27.302Z,62.30
2023-02-22T12:01:42.404Z,62.80
2023-02-22T12:02:56.761Z,63.54
2023-02-22T12:04:08.382Z,63.12
2023-02-22T12:05:40.540Z,63.55
2023-02-22T12:06:47.153Z,63.73
2023-02-22T12:08:19.380Z,64.06
2023-02-22T12:09:34.020Z,64.44
2023-02-22T12:10:45.814Z,64.44
2023-02-22T12:12:05.950Z,64.41
2023-02-22T12:13:32.568Z,64.28
2023-02-22T12:14:48.083Z,64.27
2023-02-22T12:15:56.665Z,64.42
2023-02-22T12:17:08.859Z,64.77
2023-02-22T12:18:14.626Z,65.30
2023-02-22T12:19:23.304Z,64.40
2023-02-22T12:20:52.017Z,63.89
2023-02-22T12:21:57.841Z,64.07
2023-02-22T12:23:18.562Z,63.27
2023-02-22T12:24:24.280Z,63.02
2023-02-22T12:26:56.752Z,62.79
2023-02-22T12:28:07.673Z,62.32
2023-02-22T12:29:12.983Z,62.14
2023-02-22T12:30:30.859Z,62.13
2023-02-22T12:31:36.860Z,62.94
2023-02-22T12:32:49.032Z,63.74
2023-02-22T12:33:54.819Z,63.22
2023-02-22T12:35:06.728Z,63.16
2023-02-22T12:36:12.700Z,63.71
2023-02-22T12:37:21.425Z,63.66
2023-02-22T12:38:27.185Z,64.35
2023-02-22T12:39:52.760Z,63.91
2023-02-22T12:41:04.597Z,63.54
2023-02-22T12:42:22.240Z,62.87
2023-02-22T12:43:28.820Z,62.69
2023-02-22T12:44:37.225Z,63.24
2023-02-22T12:45:57.675Z,62.95
2023-02-22T12:47:00.408Z,62.74
2023-02-22T12:48:23.002Z,62.68
2023-02-22T12:49:37.306Z,62.69
2023-02-22T12:50:42.480Z,62.65
2023-02-22T12:51:48.342Z,62.35
2023-02-22T12:53:00.110Z,62.21
2023-02-22T12:54:11.937Z,62.20
2023-02-22T12:55:21.564Z,61.81
2023-02-22T12:56:33.975Z,62.37
2023-02-22T12:57:58.026Z,63.41
2023-02-22T12:59:24.505Z,62.83
2023-02-22T13:00:51.717Z,62.78
2023-02-22T13:02:09.662Z,61.53
2023-02-22T13:03:27.760Z,61.09
2023-02-22T13:04:29.818Z,61.55
2023-02-22T13:05:35.593Z,61.94
2023-02-22T13:07:00.018Z,62.04
2023-02-22T13:08:22.645Z,61.82
2023-02-22T13:09:28.608Z,62.29
2023-02-22T13:10:41.647Z,61.61
2023-02-22T13:12:21.214Z,62.48
2023-02-22T13:13:47.681Z,61.97
2023-02-22T13:15:10.574Z,62.53
2023-02-22T13:16:25.624Z,62.04
2023-02-22T13:17:49.688Z,62.24
2023-02-22T13:18:55.662Z,62.73
2023-02-22T13:20:20.212Z,62.05
2023-02-22T13:21:26.278Z,61.98
2023-02-22T13:23:51.909Z,63.59
2023-02-22T13:24:57.713Z,63.52
2023-02-22T13:26:06.565Z,63.48
2023-02-22T13:27:15.477Z,63.37
2023-02-22T13:28:24.176Z,63.54
2023-02-22T13:29:35.985Z,63.54
2023-02-22T13:30:45.787Z,63.26
2023-02-22T13:32:12.641Z,63.55
2023-02-22T13:33:42.908Z,63.35
2023-02-22T13:35:00.800Z,62.82
2023-02-22T13:36:29.840Z,63.10
2023-02-22T13:37:41.629Z,63.21
2023-02-22T13:38:53.181Z,62.84
2023-02-22T13:40:08.429Z,62.97
2023-02-22T13:41:29.567Z,62.70
2023-02-22T13:42:54.981Z,63.07
2023-02-22T13:44:36.411Z,63.40
2023-02-22T13:45:48.367Z,63.65
2023-02-22T13:47:16.424Z,62.74
2023-02-22T13:48:22.986Z,64.02
2023-02-22T13:49:53.014Z,63.42
2023-02-22T13:52:15.570Z,63.46
2023-02-22T13:53:21.400Z,63.37
2023-02-22T13:54:39.110Z,63.22
2023-02-22T13:55:44.980Z,62.85
2023-02-22T13:56:50.166Z,64.28
2023-02-22T13:58:07.608Z,64.01
2023-02-22T13:59:13.536Z,63.48
2023-02-22T14:00:20.379Z,63.69
2023-02-22T14:01:41.748Z,63.32
2023-02-22T14:03:05.966Z,63.21
2023-02-22T14:04:30.103Z,63.42
2023-02-22T14:05:44.957Z,62.79
2023-02-22T14:06:50.186Z,62.74
2023-02-22T14:07:52.462Z,62.87
2023-02-22T14:08:54.448Z,62.88
2023-02-22T14:09:57.440Z,63.25
2023-02-22T14:11:20.660Z,63.14
2023-02-22T14:12:32.433Z,63.74
2023-02-22T14:13:57.538Z,64.62
2023-02-22T14:15:29.160Z,63.93
2023-02-22T14:16:25.394Z,65.13
2023-02-22T14:17:28.859Z,64.01
2023-02-22T14:18:34.644Z,63.95
2023-02-22T14:19:36.765Z,64.27
2023-02-22T14:20:40.340Z,63.91
2023-02-22T14:22:01.002Z,63.54
2023-02-22T14:23:29.253Z,63.14
2023-02-22T14:24:44.167Z,63.31
2023-02-22T14:25:46.542Z,65.25
2023-02-22T14:26:55.813Z,64.46
2023-02-22T14:27:59.013Z,64.61
2023-02-22T14:29:10.752Z,64.82
2023-02-22T14:30:29.280Z,64.88
2023-02-22T14:31:37.870Z,64.60
2023-02-22T14:32:40.272Z,64.94
2023-02-22T14:33:52.166Z,65.66